createdAt,value
2018-12-10T00:01:20.199Z,5.14
2018-12-10T00:04:24.972Z,5.12
2018-12-10T00:07:29.453Z,5.15
2018-12-10T00:10:41.396Z,5.30
2018-12-10T00:13:41.143Z,5.29
2018-12-10T00:16:45.863Z,5.31
2018-12-10T00:19:50.370Z,5.24
2018-12-10T00:22:54.963Z,5.27
2018-12-10T00:25:59.579Z,5.19
2018-12-10T00:32:16.103Z,5.14
2018-12-10T00:35:23.727Z,5.09
2018-12-10T00:38:29.823Z,5.13
2018-12-10T00:41:34.434Z,5.21
2018-12-10T00:44:39.017Z,5.14
2018-12-10T00:47:43.841Z,5.09
2018-12-10T00:50:48.327Z,5.15
2018-12-10T00:57:05.181Z,5.03
2018-12-10T01:00:10.218Z,4.89
2018-12-10T01:03:14.818Z,4.91
2018-12-10T01:06:20.272Z,4.93
2018-12-10T01:09:24.902Z,4.88
2018-12-10T01:12:29.366Z,4.76
2018-12-10T01:15:34.714Z,4.70
2018-12-10T01:18:40.442Z,4.70
2018-12-10T01:21:46.629Z,4.76
2018-12-10T01:28:05.358Z,4.76
2018-12-10T01:31:10.039Z,4.74
2018-12-10T01:34:15.026Z,4.70
2018-12-10T01:37:19.756Z,4.64
2018-12-10T01:40:24.582Z,4.61
2018-12-10T01:43:29.269Z,4.55
2018-12-10T01:46:36.015Z,4.54
2018-12-10T01:49:40.597Z,4.53
2018-12-10T01:52:45.131Z,4.57
2018-12-10T01:55:50.023Z,4.60
2018-12-10T01:58:55.544Z,4.60
2018-12-10T02:02:00.253Z,4.59
2018-12-10T02:05:05.014Z,4.61
2018-12-10T02:08:09.449Z,4.69
2018-12-10T02:11:14.140Z,4.70
2018-12-10T02:14:19.149Z,4.64
2018-12-10T02:20:38.573Z,4.62
2018-12-10T02:23:43.185Z,4.55
2018-12-10T02:26:48.681Z,4.58
2018-12-10T02:33:05.915Z,4.48
2018-12-10T02:36:10.469Z,4.44
2018-12-10T02:39:20.025Z,4.37
2018-12-10T02:42:24.499Z,4.43
2018-12-10T02:45:29.162Z,4.44
2018-12-10T02:48:33.676Z,4.52
2018-12-10T02:51:38.370Z,4.51
2018-12-10T02:54:42.904Z,4.65
2018-12-10T02:57:48.185Z,4.57
2018-12-10T03:00:53.999Z,4.49
2018-12-10T03:03:58.528Z,4.52
2018-12-10T03:07:03.060Z,4.56
2018-12-10T03:10:08.107Z,4.56
2018-12-10T03:13:13.032Z,4.54
2018-12-10T03:16:17.858Z,4.68
2018-12-10T03:19:23.120Z,4.68
2018-12-10T03:22:28.409Z,4.78
2018-12-10T03:25:33.646Z,4.83
2018-12-10T03:28:38.158Z,4.78
2018-12-10T03:31:44.070Z,4.80
2018-12-10T03:34:48.910Z,4.71
2018-12-10T03:37:53.568Z,4.66
2018-12-10T03:40:58.226Z,4.65
2018-12-10T03:44:04.281Z,4.66
2018-12-10T03:47:09.165Z,4.79
2018-12-10T03:50:13.826Z,4.74
2018-12-10T03:53:18.468Z,4.75
2018-12-10T03:59:35.876Z,4.68
2018-12-10T04:02:40.399Z,4.75
2018-12-10T04:05:45.396Z,4.71
2018-12-10T04:08:50.125Z,4.72
2018-12-10T04:11:54.943Z,4.77
2018-12-10T04:15:01.778Z,4.64
2018-12-10T04:18:07.256Z,4.65
2018-12-10T04:21:11.854Z,4.58
2018-12-10T04:24:16.406Z,4.54
2018-12-10T04:27:20.935Z,4.55
2018-12-10T04:30:25.945Z,4.55
2018-12-10T04:33:30.519Z,4.58
2018-12-10T04:36:35.592Z,4.63
2018-12-10T04:39:40.707Z,4.62
2018-12-10T04:42:45.257Z,4.62
2018-12-10T04:45:50.192Z,4.71
2018-12-10T04:48:56.391Z,4.82
2018-12-10T04:52:00.892Z,4.72
2018-12-10T04:55:06.049Z,4.62
2018-12-10T04:58:11.066Z,4.61
2018-12-10T05:01:15.687Z,4.67
2018-12-10T05:04:20.538Z,4.70
2018-12-10T05:07:25.066Z,4.69
2018-12-10T05:10:29.867Z,4.81
2018-12-10T05:13:35.291Z,4.79
2018-12-10T05:16:40.460Z,4.84
2018-12-10T05:19:45.190Z,4.84
2018-12-10T05:22:49.670Z,4.79
2018-12-10T05:25:54.324Z,4.80
2018-12-10T05:29:00.223Z,4.74
2018-12-10T05:32:04.902Z,4.64
2018-12-10T05:35:09.512Z,4.66
2018-12-10T05:38:14.146Z,4.75
2018-12-10T05:41:18.557Z,4.73
2018-12-10T05:44:23.119Z,4.79
2018-12-10T05:47:29.159Z,4.82
2018-12-10T05:50:33.689Z,4.85
2018-12-10T05:53:39.708Z,4.86
2018-12-10T05:56:44.135Z,4.72
2018-12-10T05:59:49.187Z,4.63
2018-12-10T06:02:53.745Z,4.56
2018-12-10T06:05:58.337Z,4.46
2018-12-10T06:09:03.265Z,4.49
2018-12-10T06:12:08.158Z,4.52
2018-12-10T06:15:12.879Z,4.64
2018-12-10T06:18:17.555Z,4.70
2018-12-10T06:21:22.154Z,4.67
2018-12-10T06:24:27.269Z,4.74
2018-12-10T06:27:31.819Z,4.73
2018-12-10T06:30:36.317Z,4.66
2018-12-10T06:33:41.061Z,4.53
2018-12-10T06:36:45.583Z,4.59
2018-12-10T06:39:58.408Z,4.55
2018-12-10T06:43:02.761Z,4.48
2018-12-10T06:46:09.279Z,4.65
2018-12-10T06:49:13.735Z,4.76
2018-12-10T06:52:18.137Z,4.35
2018-12-10T06:55:22.765Z,4.11
2018-12-10T06:58:27.061Z,3.97
2018-12-10T07:01:31.699Z,3.84
2018-12-10T07:04:36.113Z,3.84
2018-12-10T07:07:40.520Z,3.94
2018-12-10T07:10:46.446Z,4.05
2018-12-10T07:13:50.739Z,4.24
2018-12-10T07:16:56.155Z,4.28
2018-12-10T07:20:01.256Z,4.28
2018-12-10T07:23:06.300Z,4.16
2018-12-10T07:26:10.847Z,4.08
2018-12-10T07:29:15.765Z,4.14
2018-12-10T07:32:20.137Z,4.20
2018-12-10T07:35:24.566Z,4.24
2018-12-10T07:38:28.863Z,4.29
2018-12-10T07:41:33.329Z,4.32
2018-12-10T07:44:37.981Z,4.37
2018-12-10T07:47:42.362Z,4.39
2018-12-10T07:50:47.464Z,4.45
2018-12-10T07:57:08.426Z,4.39
2018-12-10T08:00:12.789Z,4.36
2018-12-10T08:03:18.322Z,4.36
2018-12-10T08:06:29.433Z,4.40
2018-12-10T08:09:35.135Z,4.46
2018-12-10T08:12:40.613Z,4.46
2018-12-10T08:15:45.129Z,4.30
2018-12-10T08:18:51.869Z,4.13
2018-12-10T08:21:56.207Z,3.97
2018-12-10T08:25:00.631Z,3.84
2018-12-10T08:28:05.087Z,3.79
2018-12-10T08:31:09.624Z,3.79
2018-12-10T08:34:14.001Z,3.86
2018-12-10T08:37:18.923Z,3.84
2018-12-10T08:40:23.389Z,3.97
2018-12-10T08:43:27.811Z,4.06
2018-12-10T08:46:34.035Z,4.17
2018-12-10T08:49:39.561Z,4.28
2018-12-10T08:52:44.041Z,4.35
2018-12-10T08:55:48.753Z,4.48
2018-12-10T08:58:53.347Z,4.60
2018-12-10T09:01:58.689Z,4.70
2018-12-10T09:05:06.428Z,4.85
2018-12-10T09:08:10.967Z,5.05
2018-12-10T09:11:15.438Z,5.22
2018-12-10T09:17:37.397Z,4.81
2018-12-10T09:20:41.859Z,4.42
2018-12-10T09:23:46.536Z,4.17
2018-12-10T09:26:54.299Z,4.07
2018-12-10T09:33:25.506Z,4.02
2018-12-10T09:36:30.241Z,4.10
2018-12-10T09:39:38.914Z,4.29
2018-12-10T09:42:45.770Z,4.44
2018-12-10T09:45:51.476Z,4.54
2018-12-10T09:48:58.600Z,4.51
2018-12-10T09:52:12.243Z,4.63
2018-12-10T09:55:17.763Z,4.76
2018-12-10T10:01:36.722Z,5.25
2018-12-10T10:04:41.999Z,5.61
2018-12-10T10:07:51.260Z,5.57
2018-12-10T10:10:55.789Z,5.20
2018-12-10T10:14:00.216Z,4.99
2018-12-10T10:17:05.165Z,4.87
2018-12-10T10:20:09.723Z,4.69
2018-12-10T10:23:15.700Z,4.46
2018-12-10T10:26:20.133Z,4.35
2018-12-10T10:29:55.303Z,4.36
2018-12-10T10:33:00.251Z,4.51
2018-12-10T10:36:07.110Z,4.58
2018-12-10T10:39:11.597Z,4.54
2018-12-10T10:42:21.449Z,4.40
2018-12-10T10:45:34.449Z,4.20
2018-12-10T10:48:33.620Z,4.18
2018-12-10T10:51:38.611Z,4.19
2018-12-10T10:54:43.007Z,4.23
2018-12-10T10:57:48.614Z,4.35
2018-12-10T11:00:58.515Z,4.63
2018-12-10T11:04:04.156Z,4.68
2018-12-10T11:07:08.787Z,4.67
2018-12-10T11:10:25.669Z,4.73
2018-12-10T11:13:31.003Z,4.76
2018-12-10T11:16:36.386Z,4.82
2018-12-10T11:19:41.421Z,4.91
2018-12-10T11:22:46.445Z,4.93
2018-12-10T11:25:52.887Z,4.91
2018-12-10T11:29:00.181Z,4.91
2018-12-10T11:32:16.030Z,4.94
2018-12-10T11:35:21.419Z,4.90
2018-12-10T11:38:26.235Z,4.87
2018-12-10T11:41:30.719Z,4.98
2018-12-10T11:44:37.602Z,5.20
2018-12-10T11:47:48.545Z,5.34
2018-12-10T11:50:53.063Z,5.16
2018-12-10T11:53:57.380Z,5.10
2018-12-10T11:57:01.679Z,5.12
2018-12-10T12:00:08.504Z,5.26
2018-12-10T12:23:12.948Z,14.94
2018-12-10T12:26:15.453Z,14.91
2018-12-10T12:29:19.209Z,14.39
2018-12-10T12:32:22.445Z,16.93
2018-12-10T12:35:25.797Z,15.67
2018-12-10T12:41:09.618Z,7.20
2018-12-10T12:44:13.028Z,6.57
2018-12-10T12:47:17.133Z,6.30
2018-12-10T12:50:21.512Z,6.31
2018-12-10T12:53:25.818Z,6.26
2018-12-10T12:56:29.122Z,6.19
2018-12-10T12:59:33.016Z,6.21
2018-12-10T13:02:36.365Z,6.29
2018-12-10T13:05:39.678Z,6.32
2018-12-10T13:08:43.136Z,6.39
2018-12-10T13:11:46.324Z,6.45
2018-12-10T13:14:49.945Z,6.48
2018-12-10T13:17:53.164Z,6.56
2018-12-10T13:20:56.400Z,6.60
2018-12-10T13:23:59.700Z,6.62
2018-12-10T13:27:02.986Z,6.67
2018-12-10T13:30:06.470Z,6.73
2018-12-10T13:33:10.118Z,6.72
2018-12-10T13:36:13.358Z,6.75
2018-12-10T13:39:16.563Z,6.76
2018-12-10T13:42:19.776Z,6.77
2018-12-10T13:45:22.980Z,6.73
2018-12-10T13:48:27.031Z,6.76
2018-12-10T13:51:30.262Z,6.73
2018-12-10T13:54:33.490Z,6.70
2018-12-10T13:57:37.029Z,6.67
2018-12-10T14:00:40.764Z,6.65
2018-12-10T14:03:44.694Z,6.70
2018-12-10T14:06:49.183Z,6.75
2018-12-10T14:09:52.537Z,6.76
2018-12-10T14:12:55.845Z,6.74
2018-12-10T14:15:59.226Z,6.70
2018-12-10T14:19:02.698Z,6.70
2018-12-10T14:22:06.062Z,6.66
2018-12-10T14:25:30.245Z,6.58
2018-12-10T14:28:33.631Z,6.58
2018-12-10T14:31:36.804Z,6.60
2018-12-10T14:34:39.983Z,6.47
2018-12-10T14:37:43.167Z,6.25
2018-12-10T14:40:46.455Z,6.14
2018-12-10T14:43:49.628Z,6.11
2018-12-10T14:46:53.882Z,6.15
2018-12-10T14:49:57.101Z,6.22
2018-12-10T14:53:02.919Z,6.35
2018-12-10T14:56:07.185Z,6.38
2018-12-10T14:59:10.496Z,6.32
2018-12-10T15:02:13.704Z,6.44
2018-12-10T15:05:16.950Z,6.45
2018-12-10T15:08:21.354Z,6.60
2018-12-10T15:11:24.564Z,6.58
2018-12-10T15:14:27.904Z,6.62
2018-12-10T15:17:31.474Z,6.66
2018-12-10T15:20:34.901Z,6.70
2018-12-10T15:23:38.201Z,6.68
2018-12-10T15:26:41.464Z,6.66
2018-12-10T15:29:44.655Z,6.70
2018-12-10T15:32:48.117Z,6.48
2018-12-10T15:35:51.379Z,6.55
2018-12-10T15:38:54.578Z,6.60
2018-12-10T15:41:57.806Z,6.62
2018-12-10T15:45:01.178Z,6.68
2018-12-10T15:48:04.465Z,6.57
2018-12-10T15:51:08.607Z,6.60
2018-12-10T15:54:11.818Z,6.59
2018-12-10T15:57:16.433Z,6.69
2018-12-10T16:00:19.959Z,6.63
2018-12-10T16:03:23.261Z,6.56
2018-12-10T16:06:26.757Z,6.61
2018-12-10T16:09:30.248Z,6.47
2018-12-10T16:12:33.474Z,6.39
2018-12-10T16:15:36.801Z,6.34
2018-12-10T16:18:40.008Z,6.36
2018-12-10T16:21:44.057Z,6.46
2018-12-10T16:24:47.233Z,6.39
2018-12-10T16:27:50.652Z,6.26
2018-12-10T16:30:54.244Z,6.30
2018-12-10T16:33:57.458Z,6.44
2018-12-10T16:37:00.638Z,6.23
2018-12-10T16:40:04.798Z,6.13
2018-12-10T16:43:08.035Z,6.00
2018-12-10T16:46:11.283Z,5.92
2018-12-10T16:49:14.552Z,5.89
2018-12-10T16:52:18.013Z,5.84
2018-12-10T16:55:21.522Z,5.81
2018-12-10T16:58:24.899Z,5.77
2018-12-10T17:01:28.100Z,5.78
2018-12-10T17:04:31.634Z,5.76
2018-12-10T17:07:35.012Z,5.68
2018-12-10T17:10:38.284Z,5.66
2018-12-10T17:13:41.477Z,5.57
2018-12-10T17:16:45.048Z,5.57
2018-12-10T17:19:48.256Z,5.52
2018-12-10T17:22:52.852Z,5.53
2018-12-10T17:25:56.147Z,5.50
2018-12-10T17:28:59.452Z,5.47
2018-12-10T17:32:03.765Z,5.49
2018-12-10T17:35:07.336Z,5.45
2018-12-10T17:38:10.707Z,5.46
2018-12-10T17:41:14.010Z,5.45
2018-12-10T17:44:17.353Z,5.54
2018-12-10T17:47:20.753Z,5.49
2018-12-10T17:50:23.974Z,5.54
2018-12-10T17:53:27.228Z,5.58
2018-12-10T17:56:30.673Z,5.58
2018-12-10T17:59:34.381Z,5.49
2018-12-10T18:02:37.696Z,5.46
2018-12-10T18:05:40.934Z,5.57
2018-12-10T18:08:44.230Z,5.51
2018-12-10T18:11:47.564Z,5.49
2018-12-10T18:14:50.843Z,5.46
2018-12-10T18:17:54.138Z,5.51
2018-12-10T18:20:57.806Z,5.61
2018-12-10T18:24:01.008Z,5.51
2018-12-10T18:27:04.590Z,5.50
2018-12-10T18:30:10.006Z,5.54
2018-12-10T18:33:13.285Z,5.52
2018-12-10T18:36:16.689Z,5.54
2018-12-10T18:39:23.289Z,5.44
2018-12-10T18:42:30.928Z,5.45
2018-12-10T18:45:34.481Z,5.35
2018-12-10T18:48:37.915Z,5.32
2018-12-10T18:51:41.394Z,5.35
2018-12-10T18:54:44.853Z,5.32
2018-12-10T18:57:48.141Z,5.39
2018-12-10T19:00:51.605Z,5.45
2018-12-10T19:03:54.875Z,5.35
2018-12-10T19:06:58.180Z,5.29
2018-12-10T19:10:01.498Z,5.44
2018-12-10T19:13:04.825Z,5.45
2018-12-10T19:16:09.493Z,5.38
2018-12-10T19:19:14.362Z,5.33
2018-12-10T19:22:17.777Z,5.35
2018-12-10T19:25:21.139Z,5.35
2018-12-10T19:28:24.644Z,5.33
2018-12-10T19:31:28.029Z,5.31
2018-12-10T19:34:31.388Z,5.27
2018-12-10T19:37:34.865Z,5.24
2018-12-10T19:40:38.411Z,5.24
2018-12-10T19:43:41.964Z,5.27
2018-12-10T19:46:45.447Z,5.28
2018-12-10T19:49:49.506Z,5.21
2018-12-10T19:52:53.073Z,5.21
2018-12-10T19:55:56.553Z,5.19
2018-12-10T19:59:01.468Z,5.22
2018-12-10T20:02:05.109Z,5.48
2018-12-10T20:05:08.736Z,5.26
2018-12-10T20:08:12.327Z,5.25
2018-12-10T20:11:15.728Z,5.24
2018-12-10T20:14:19.809Z,5.21
2018-12-10T20:17:23.666Z,5.14
2018-12-10T20:20:28.136Z,5.19
2018-12-10T20:23:31.535Z,5.20
2018-12-10T20:26:35.101Z,5.18
2018-12-10T20:29:38.545Z,5.20
2018-12-10T20:32:41.994Z,5.21
2018-12-10T20:35:45.573Z,5.31
2018-12-10T20:38:49.043Z,5.39
2018-12-10T20:41:52.613Z,5.27
2018-12-10T20:44:56.128Z,5.25
2018-12-10T20:47:59.566Z,5.20
2018-12-10T20:51:03.058Z,5.23
2018-12-10T20:54:08.220Z,5.21
2018-12-10T20:57:11.573Z,5.17
2018-12-10T21:00:15.085Z,5.18
2018-12-10T21:03:18.375Z,5.18
2018-12-10T21:06:28.263Z,5.08
2018-12-10T21:09:31.567Z,5.10
2018-12-10T21:12:34.955Z,5.13
2018-12-10T21:15:38.442Z,5.12
2018-12-10T21:18:41.758Z,5.09
2018-12-10T21:21:45.310Z,5.05
2018-12-10T21:24:48.591Z,5.03
2018-12-10T21:27:52.397Z,5.06
2018-12-10T21:30:55.665Z,5.03
2018-12-10T21:34:00.612Z,5.06
2018-12-10T21:37:04.911Z,5.07
2018-12-10T21:40:08.394Z,5.08
2018-12-10T21:43:11.723Z,5.02
2018-12-10T21:46:15.060Z,4.93
2018-12-10T21:49:18.248Z,4.93
2018-12-10T21:52:21.423Z,5.12
2018-12-10T21:55:24.725Z,4.96
2018-12-10T21:58:27.973Z,4.99
2018-12-10T22:01:31.395Z,5.02
2018-12-10T22:04:34.653Z,5.00
2018-12-10T22:07:38.075Z,4.99
2018-12-10T22:10:42.097Z,5.01
2018-12-10T22:13:45.367Z,5.11
2018-12-10T22:16:48.662Z,4.97
2018-12-10T22:19:51.877Z,4.92
2018-12-10T22:22:55.212Z,4.90
2018-12-10T22:25:58.490Z,4.91
2018-12-10T22:29:03.471Z,5.02
2018-12-10T22:32:06.986Z,4.94
2018-12-10T22:35:10.529Z,4.93
2018-12-10T22:38:13.997Z,4.99
2018-12-10T22:41:17.429Z,4.93
2018-12-10T22:44:22.399Z,4.86
2018-12-10T22:47:25.754Z,4.90
2018-12-10T22:50:29.800Z,4.90
2018-12-10T22:53:34.214Z,4.96
2018-12-10T22:56:37.708Z,4.85
2018-12-10T22:59:41.464Z,4.79
2018-12-10T23:02:44.898Z,4.83
2018-12-10T23:05:50.835Z,4.83
2018-12-10T23:08:55.592Z,4.86
2018-12-10T23:11:58.847Z,4.82
2018-12-10T23:15:02.778Z,4.79
2018-12-10T23:18:06.371Z,4.80
2018-12-10T23:21:09.796Z,4.85
2018-12-10T23:24:13.225Z,4.89
2018-12-10T23:27:16.393Z,4.89
2018-12-10T23:30:19.697Z,4.80
2018-12-10T23:33:22.902Z,4.71
2018-12-10T23:36:26.246Z,4.76
2018-12-10T23:39:29.460Z,4.75
2018-12-10T23:42:32.892Z,4.70
2018-12-10T23:45:36.180Z,4.72
2018-12-10T23:48:39.339Z,4.67
2018-12-10T23:51:42.559Z,4.62
2018-12-10T23:54:45.798Z,4.70
2018-12-10T23:57:48.972Z,4.65
